首页
METAR-TAF:

METAR-TAF

机场 :

邁亞密國際機場

迈阿密, 佛罗里达州, 美国

纬度: 25-47-26N, 经度: 080-18-59W, 海拔: 3米

当前天气观测

该预报发布于8分钟前的21:53 UTC
风速11节,风向西
温度 27°C
湿度 62%
气压 1012 hPa
能見度: 16.1公里
少量云层高于3500英尺
少量云层高于8000英尺
少量云层高于25000英尺

METAR: KMIA 142153Z 26011KT 10SM FEW035 FEW080 FEW250 27/19 A2987 RMK AO2 SLP113 T02720189 $

时间: 17:01 (22:01 UTC)

预报

该预报发布于4小时和19分钟前的17:42 UTC
预报有效从14日的 18点(UTC)到 15日的 24点(UTC)
风速12节,风向西转西南,有时为22节阵风
能見度: 10公里
散云层高于3000英尺
多云层高于6000英尺
附近有阵雨
短暂存在
从 14日的 18点(UTC)到 14日的 21点(UTC)
风速15节,风向多变,有时为25节阵风
能見度: 4.8公里
多云层高于2000英尺
阴天层高于4000英尺
阵雨
从 14日的 2100点(UTC)
风速12节,风向西,有时为22节阵风
能見度: 10公里
散云层高于3000英尺
散云层高于25000英尺
附近有阵雨
从 15日的 0000点(UTC)
风速7节,风向北转西北
能見度: 10公里
少量云层高于5000英尺
散云层高于25000英尺
从 15日的 1300点(UTC)
风速8节,风向东转东北
能見度: 10公里
少量云层高于4000英尺
少量云层高于25000英尺

TAF: KMIA 141742Z 1418/1524 25012G22KT P6SM VCSH SCT030 BKN060 TEMPO 1418/1421 VRB15G25KT 3SM SHRA BKN020 OVC040 FM142100 28012G22KT P6SM VCSH SCT030 SCT250 FM150000 33007KT P6SM FEW050 SCT250 FM151300 06008KT P6SM FEW040 FEW250

超过4000个机场的气象观测和天气预报(METAR&TAF报告)。

可查询的气象台以黄色和红色小点在地图上表示。

将鼠标移到小点上方,可查看气象台名称。

然后点击查看天气观测和预报。

如需切换地图:点击带黑十字的绿色按钮放大地图;点击带横线的绿色按钮缩小地图;或者点击绿色箭头查看邻近地区的地图。


METAR-TAF: